Time;durP1;ratioP1;P1;durP2;ratioP2;P2;SDS_P1;SDS_P2;PMS_P1;PMS_P2;Temp;Humidity;BMP_temperature;BMP_pressure;BME280_temperature;BME280_humidity;BME280_pressure;Samples;Min_cycle;Max_cycle;Signal;HPM_P1;HPM_P2
2023/11/11 00:04:51;;;;;;;249.10;79.80;;;;;;;3.66;100.00;99153.67;223870;1265;140162;-83
2023/11/11 00:10:52;;;;;;;172.70;62.40;;;;;;;3.56;100.00;99158.08;223336;1265;140274;-83
2023/11/11 00:16:53;;;;;;;84.60;35.20;;;;;;;3.52;100.00;99167.88;223902;1264;96008;-84
2023/11/11 00:22:55;;;;;;;273.70;84.30;;;;;;;3.47;100.00;99178.03;223411;1265;140256;-84
2023/11/11 00:28:56;;;;;;;235.00;69.50;;;;;;;3.36;100.00;99182.08;223589;1265;140399;-84
2023/11/11 00:34:53;;;;;;;158.20;51.90;;;;;;;3.30;100.00;99174.83;224087;1265;111604;-84
2023/11/11 00:40:54;;;;;;;143.30;50.00;;;;;;;3.24;100.00;99175.16;223498;1265;140877;-83
2023/11/11 00:46:55;;;;;;;166.00;54.40;;;;;;;3.19;100.00;99173.66;223864;1265;138536;-84
2023/11/11 00:58:46;;;;;;;191.20;61.30;;;;;;;3.09;100.00;99160.20;223478;1264;141510;-84
2023/11/11 01:04:47;;;;;;;253.40;78.00;;;;;;;3.03;100.00;99160.30;223746;1264;139149;-84
2023/11/11 01:10:34;;;;;;;147.80;53.20;;;;;;;2.97;100.00;99160.79;223426;1265;141395;-84
2023/11/11 01:16:30;;;;;;;277.70;96.60;;;;;;;2.92;100.00;99158.59;223998;1265;139733;-84
2023/11/11 01:22:24;;;;;;;213.70;72.50;;;;;;;2.87;100.00;99166.11;223310;1265;140475;-83
2023/11/11 01:28:29;;;;;;;298.80;89.10;;;;;;;2.81;100.00;99168.31;223529;1265;140539;-84
2023/11/11 01:34:29;;;;;;;243.30;69.70;;;;;;;2.76;100.00;99163.08;224056;1265;138810;-83
2023/11/11 01:40:31;;;;;;;343.40;93.30;;;;;;;2.68;100.00;99157.30;223370;1265;141008;-84
2023/11/11 01:46:32;;;;;;;292.50;89.80;;;;;;;2.64;100.00;99160.88;223831;1265;139254;-84
2023/11/11 01:52:31;;;;;;;;;;;;;;;;;;;;;
2023/11/11 01:58:38;;;;;;;119.20;44.50;;;;;;;2.53;100.00;99150.39;223227;1265;141277;-84
2023/11/11 02:04:35;;;;;;;93.50;37.40;;;;;;;2.50;100.00;99135.96;223785;1265;138661;-84
2023/11/11 02:10:37;;;;;;;93.80;40.30;;;;;;;2.50;100.00;99136.64;223381;1265;139546;-84
2023/11/11 02:16:38;;;;;;;62.20;30.70;;;;;;;2.49;100.00;99136.10;223865;1265;138520;-83
2023/11/11 02:22:32;;;;;;;53.40;28.20;;;;;;;2.46;100.00;99136.80;223464;1265;140650;-84
2023/11/11 02:28:33;;;;;;;56.70;28.80;;;;;;;2.44;100.00;99138.47;223585;1265;141439;-83
2023/11/11 02:34:35;;;;;;;59.90;29.80;;;;;;;2.43;100.00;99138.98;223905;1265;138544;-84
2023/11/11 02:40:33;;;;;;;60.00;27.40;;;;;;;2.40;100.00;99138.14;223401;1265;141042;-84
2023/11/11 02:46:34;;;;;;;56.80;27.40;;;;;;;2.38;100.00;99132.43;224040;1265;139099;-84
2023/11/11 02:52:35;;;;;;;70.20;34.10;;;;;;;2.36;100.00;99126.49;223432;1265;140219;-83
2023/11/11 02:58:36;;;;;;;54.20;26.10;;;;;;;2.31;100.00;99114.91;223435;1265;140451;-84
2023/11/11 03:05:02;;;;;;;69.40;32.50;;;;;;;2.28;100.00;99115.21;223882;1265;138701;-84
2023/11/11 03:10:42;;;;;;;64.00;30.70;;;;;;;2.28;100.00;99112.52;223285;1265;140646;-84
2023/11/11 03:16:43;;;;;;;53.50;28.10;;;;;;;2.27;100.00;99118.61;223979;1265;138639;-84
2023/11/11 03:22:44;;;;;;;60.90;30.20;;;;;;;2.23;100.00;99114.17;223351;1264;140053;-85
2023/11/11 03:28:45;;;;;;;57.80;29.30;;;;;;;2.20;100.00;99107.67;223369;1265;140490;-84
2023/11/11 03:34:47;;;;;;;58.80;29.20;;;;;;;2.17;100.00;99098.16;224014;1265;139114;-84
2023/11/11 03:40:48;;;;;;;64.60;32.00;;;;;;;2.14;100.00;99104.20;223327;1265;139941;-84
2023/11/11 03:46:47;;;;;;;;;;;;;;;;;;;;;
2023/11/11 03:58:50;;;;;;;56.80;29.70;;;;;;;2.02;100.00;99104.46;223388;1265;140943;-84
2023/11/11 04:04:51;;;;;;;54.60;28.20;;;;;;;1.95;100.00;99103.98;223906;1265;138545;-85
2023/11/11 04:16:52;;;;;;;84.80;36.10;;;;;;;1.88;100.00;99114.30;224027;1265;138462;-84
2023/11/11 04:22:33;;;;;;;127.70;46.80;;;;;;;1.84;100.00;99116.67;223336;1265;140960;-84
2023/11/11 04:28:35;;;;;;;106.40;43.90;;;;;;;1.77;100.00;99110.06;223494;1265;141106;-85
2023/11/11 04:34:36;;;;;;;103.90;40.10;;;;;;;1.70;100.00;99106.41;224027;1264;139249;-85
2023/11/11 04:40:37;;;;;;;79.60;33.50;;;;;;;1.67;100.00;99095.80;223502;1265;140581;-84
2023/11/11 04:46:38;;;;;;;56.90;28.20;;;;;;;1.65;100.00;99089.55;223990;1266;138563;-85
2023/11/11 04:52:39;;;;;;;56.00;26.70;;;;;;;1.61;100.00;99087.50;223531;1265;140621;-84
2023/11/11 04:58:40;;;;;;;52.40;27.00;;;;;;;1.52;100.00;99087.77;223500;1265;140450;-85
2023/11/11 05:04:42;;;;;;;46.10;24.50;;;;;;;1.49;100.00;99090.30;223998;1265;139240;-85
2023/11/11 05:10:43;;;;;;;46.90;24.80;;;;;;;1.47;100.00;99099.00;223524;1265;140585;-85
2023/11/11 05:16:57;;;;;;;40.40;22.40;;;;;;;1.45;100.00;99106.85;223897;1265;139458;-85
2023/11/11 05:22:51;;;;;;;37.60;21.30;;;;;;;1.42;100.00;99111.19;223481;1265;140410;-85
2023/11/11 05:28:52;;;;;;;39.30;21.10;;;;;;;1.38;100.00;99109.00;223306;1265;141390;-85
2023/11/11 05:34:57;;;;;;;40.20;21.30;;;;;;;1.37;100.00;99106.27;223873;1265;138402;-85
2023/11/11 05:46:56;;;;;;;40.20;21.00;;;;;;;1.36;100.00;99113.27;223937;1265;138916;-85
2023/11/11 05:52:57;;;;;;;37.40;20.30;;;;;;;1.35;100.00;99114.35;223577;1265;140168;-85
2023/11/11 05:58:51;;;;;;;45.80;22.90;;;;;;;1.34;100.00;99114.02;223609;1264;140339;-86
2023/11/11 06:04:50;;;;;;;;;;;;;;;;;;;;;
2023/11/11 06:10:51;;;;;;;41.30;21.40;;;;;;;1.38;100.00;99120.75;223346;1265;140616;-86
2023/11/11 06:16:52;;;;;;;42.30;21.00;;;;;;;1.38;100.00;99125.70;224087;1265;139084;-84
2023/11/11 06:22:53;;;;;;;46.50;24.20;;;;;;;1.40;100.00;99135.91;223380;1265;140765;-84
2023/11/11 06:28:55;;;;;;;50.80;25.40;;;;;;;1.44;100.00;99140.05;223496;1265;141237;-85
2023/11/11 06:34:55;;;;;;;41.70;23.60;;;;;;;1.48;100.00;99151.15;223960;1265;138664;-84
2023/11/11 06:46:57;;;;;;;43.70;23.50;;;;;;;1.59;100.00;99150.36;223983;1265;138581;-84
2023/11/11 06:52:57;;;;;;;;;;;;;;;;;;;;;
2023/11/11 06:58:58;;;;;;;46.00;23.20;;;;;;;1.76;100.00;99135.55;223403;1265;140665;-85
2023/11/11 07:04:51;;;;;;;;;;;;;;;;;;;;;
2023/11/11 07:10:44;;;;;;;;;;;;;;;;;;;;;
2023/11/11 07:16:46;;;;;;;46.90;24.70;;;;;;;2.17;100.00;99133.89;224064;1265;138465;-84
2023/11/11 07:22:10;;;;;;;49.60;25.10;;;;;;;2.34;100.00;99137.38;223392;1265;140222;-83
2023/11/11 07:28:15;;;;;;;44.50;24.50;;;;;;;2.58;100.00;99133.27;223377;1265;141155;-83
2023/11/11 07:34:08;;;;;;;47.40;25.90;;;;;;;2.80;100.00;99130.41;224072;1266;138918;-84
2023/11/11 07:40:03;;;;;;;;;;;;;;;;;;;;;
2023/11/11 07:46:03;;;;;;;;;;;;;;;;;;;;;
2023/11/11 07:52:05;;;;;;;53.90;27.30;;;;;;;3.60;100.00;99134.98;223389;1266;139684;-83
2023/11/11 07:58:05;;;;;;;51.80;28.00;;;;;;;3.92;100.00;99132.52;223532;1265;140846;-83
2023/11/11 08:04:07;;;;;;;57.10;30.80;;;;;;;4.22;100.00;99135.56;223956;1266;139409;-82
2023/11/11 08:09:57;;;;;;;;;;;;;;;;;;;;;
2023/11/11 08:15:59;;;;;;;52.20;30.00;;;;;;;4.75;100.00;99145.98;223799;1268;138636;-82
2023/11/11 08:21:42;;;;;;;82.20;39.40;;;;;;;4.97;100.00;99150.17;223427;1266;140076;-82
2023/11/11 08:33:40;;;;;;;57.10;32.80;;;;;;;5.35;100.00;99158.80;223578;1266;139105;-82
2023/11/11 08:39:31;;;;;;;48.40;30.90;;;;;;;5.51;100.00;99163.52;223456;1266;140260;-82
2023/11/11 08:45:32;;;;;;;48.50;29.30;;;;;;;5.64;100.00;99156.23;224072;1265;138948;-82
2023/11/11 08:51:06;;;;;;;;;;;;;;;;;;;;;
2023/11/11 08:56:51;;;;;;;51.90;29.80;;;;;;;5.87;100.00;99154.63;224062;1265;139889;-83
2023/11/11 09:02:45;;;;;;;;;;;;;;;;;;;;;
2023/11/11 09:08:32;;;;;;;;;;;;;;;;;;;;;
2023/11/11 09:14:25;;;;;;;54.90;30.80;;;;;;;6.17;100.00;99164.70;224066;1265;139209;-83
2023/11/11 09:20:48;;;;;;;83.20;37.00;;;;;;;6.31;100.00;99152.80;223561;1266;140438;-83
2023/11/11 09:26:30;;;;;;;45.90;28.50;;;;;;;6.79;100.00;99150.07;224121;1264;138100;-82
2023/11/11 09:32:32;;;;;;;40.10;26.00;;;;;;;7.25;100.00;99140.59;219385;1266;5387069;-82
2023/11/11 09:38:33;;;;;;;39.50;25.10;;;;;;;7.75;100.00;99131.48;223452;1266;140934;-82
2023/11/11 09:44:23;;;;;;;;;;;;;;;;;;;;;
2023/11/11 09:50:11;;;;;;;32.20;20.00;;;;;;;8.63;100.00;99136.83;223436;1266;140441;-84
2023/11/11 10:08:22;;;;;;;29.10;18.70;;;;;;;9.19;100.00;99140.58;223383;1266;140613;-83
2023/11/11 10:14:21;;;;;;;26.80;14.40;;;;;;;9.24;100.00;99135.14;224060;1265;138699;-85
2023/11/11 10:20:20;;;;;;;;;;;;;;;;;;;;;
2023/11/11 10:26:22;;;;;;;18.50;11.30;;;;;;;9.27;100.00;99137.25;224002;1265;139287;-84
2023/11/11 10:32:23;;;;;;;15.30;8.90;;;;;;;9.38;100.00;99125.05;223349;1266;140060;-84
2023/11/11 10:38:25;;;;;;;18.30;11.00;;;;;;;9.43;100.00;99128.06;223372;1266;140650;-86
2023/11/11 10:44:11;;;;;;;;;;;;;;;;;;;;;
2023/11/11 10:49:52;;;;;;;;;;;;;;;;;;;;;
2023/11/11 10:55:46;;;;;;;;;;;;;;;;;;;;;
2023/11/11 11:01:48;;;;;;;15.80;8.90;;;;;;;9.48;100.00;99121.36;223457;1266;140961;-84
2023/11/11 11:07:59;;;;;;;13.10;6.10;;;;;;;9.46;100.00;99116.59;223841;1265;139250;-83
2023/11/11 11:13:53;;;;;;;;;;;;;;;;;;;;;
2023/11/11 11:19:47;;;;;;;;;;;;;;;;;;;;;
2023/11/11 11:25:50;;;;;;;11.50;5.20;;;;;;;9.55;100.00;99116.94;223602;1268;139556;-82
2023/11/11 11:31:49;;;;;;;12.70;6.60;;;;;;;9.60;100.00;99120.98;223449;1266;141327;-83
2023/11/11 11:37:53;;;;;;;13.90;6.20;;;;;;;9.65;100.00;99116.88;223934;1266;139391;-84
2023/11/11 11:43:40;;;;;;;;;;;;;;;;;;;;;
2023/11/11 11:49:34;;;;;;;;;;;;;;;;;;;;;
2023/11/11 11:55:21;;;;;;;;;;;;;;;;;;;;;
2023/11/11 12:01:05;;;;;;;13.10;5.80;;;;;;;9.84;98.64;99112.98;223405;1268;139649;-85
2023/11/11 12:07:08;;;;;;;10.90;5.20;;;;;;;9.92;97.36;99110.25;224060;1268;138803;-83
2023/11/11 12:13:08;;;;;;;;;;;;;;;;;;;;;
2023/11/11 12:25:04;;;;;;;11.10;4.60;;;;;;;10.03;95.74;99101.69;223721;1264;139240;-83
2023/11/11 12:31:17;;;;;;;11.40;4.40;;;;;;;10.07;94.97;99102.95;223444;1268;140794;-83
2023/11/11 12:36:50;;;;;;;;;;;;;;;;;;;;;
2023/11/11 12:42:45;;;;;;;12.10;5.40;;;;;;;10.12;93.87;99110.20;223372;1267;140597;-83
2023/11/11 12:54:56;;;;;;;12.20;5.60;;;;;;;10.18;94.30;99116.20;223470;1268;138799;-83
2023/11/11 13:00:57;;;;;;;10.50;5.30;;;;;;;10.20;93.56;99118.78;223494;1268;140838;-83
2023/11/11 13:07:00;;;;;;;11.30;4.50;;;;;;;10.19;93.25;99117.22;223955;1267;139617;-82
2023/11/11 13:12:59;;;;;;;10.80;4.60;;;;;;;10.17;92.07;99118.80;223489;1267;140645;-83
2023/11/11 13:18:53;;;;;;;;;;;;;;;;;;;;;
2023/11/11 13:24:31;;;;;;;;;;;;;;;;;;;;;
2023/11/11 13:30:12;;;;;;;;;;;;;;;10.09;91.01;99123.02;223466;1267;140641;-84
2023/11/11 13:35:56;;;;;;;14.40;6.50;;;;;;;10.07;91.88;99120.46;223981;1267;124862;-83
2023/11/11 13:41:31;;;;;;;;;;;;;;;;;;;;;
2023/11/11 13:47:33;;;;;;;15.80;6.40;;;;;;;10.10;90.91;99122.41;223970;1267;106334;-84
2023/11/11 13:53:18;;;;;;;11.40;3.70;;;;;;;10.12;90.73;99120.49;223947;1267;385292;-84
2023/11/11 13:58:51;;;;;;;11.50;4.80;;;;;;;10.17;90.54;99123.83;223554;1267;142062;-84
2023/11/11 14:04:33;;;;;;;11.60;5.30;;;;;;;10.23;90.25;99128.89;223982;1267;138384;-83
2023/11/11 14:10:36;;;;;;;10.80;4.20;;;;;;;10.28;91.22;99134.56;223415;1266;140843;-84
2023/11/11 14:16:09;;;;;;;11.20;4.40;;;;;;;10.34;91.03;99139.39;223979;1267;138897;-83
2023/11/11 14:22:10;;;;;;;9.90;4.50;;;;;;;10.39;92.17;99144.39;223397;1267;140519;-83
2023/11/11 14:27:57;;;;;;;9.40;4.20;;;;;;;10.44;91.77;99152.35;223410;1266;141806;-83
2023/11/11 14:33:50;;;;;;;;;;;;;;;;;;;;;
2023/11/11 14:39:33;;;;;;;12.70;6.40;;;;;;;10.44;90.50;99160.29;223349;1266;140176;-84
2023/11/11 14:45:00;;;;;;;;;;;;;;;;;;;;;
2023/11/11 14:50:33;;;;;;;14.30;7.10;;;;;;;10.34;90.27;99168.86;223570;1265;141577;-83
2023/11/11 14:56:35;;;;;;;16.40;7.60;;;;;;;10.27;90.11;99170.95;223847;1266;138647;-83
2023/11/11 15:02:26;;;;;;;16.10;6.60;;;;;;;10.21;91.19;99179.64;223296;1267;140261;-83
2023/11/11 15:08:35;;;;;;;13.50;7.30;;;;;;;10.16;91.83;99185.41;223428;1264;140261;-83
2023/11/11 15:14:35;;;;;;;15.20;7.20;;;;;;;10.09;93.17;99190.65;223832;1265;139268;-83
2023/11/11 15:20:44;;;;;;;14.00;7.60;;;;;;;10.01;92.77;99196.73;223395;1265;140778;-84
2023/11/11 15:27:00;;;;;;;16.50;8.20;;;;;;;9.93;93.28;99203.69;223976;1265;138679;-84
2023/11/11 15:32:38;;;;;;;16.70;8.10;;;;;;;9.82;94.90;99206.02;223282;1265;139954;-85
2023/11/11 15:38:31;;;;;;;16.80;8.90;;;;;;;9.61;95.27;99216.25;223270;1265;139916;-84
2023/11/11 15:44:13;;;;;;;17.90;9.90;;;;;;;9.45;95.90;99221.66;223966;1265;137801;-83
2023/11/11 15:49:58;;;;;;;18.90;9.70;;;;;;;9.33;96.64;99220.91;223375;1265;139993;-84
2023/11/11 15:55:54;;;;;;;23.00;12.70;;;;;;;9.24;97.18;99224.94;223904;1265;138355;-84
2023/11/11 16:01:55;;;;;;;22.60;11.60;;;;;;;9.18;98.17;99229.52;223367;1265;140229;-84
2023/11/11 16:07:56;;;;;;;19.20;10.80;;;;;;;9.11;98.81;99233.14;223911;1265;138426;-85
2023/11/11 16:13:55;;;;;;;;;;;;;;;;;;;;;
2023/11/11 16:19:57;;;;;;;22.60;13.50;;;;;;;8.94;99.91;99241.48;223280;1268;139938;-85
2023/11/11 16:25:58;;;;;;;25.70;16.80;;;;;;;8.86;100.00;99248.94;223673;1265;138582;-84
2023/11/11 16:31:42;;;;;;;;;;;;;;;;;;;;;
2023/11/11 16:37:45;;;;;;;18.70;11.90;;;;;;;8.68;100.00;99257.09;224033;1265;138779;-84
2023/11/11 16:43:46;;;;;;;33.40;17.40;;;;;;;8.61;100.00;99260.70;223850;1264;366715;-84
2023/11/11 16:49:40;;;;;;;43.20;24.20;;;;;;;8.60;100.00;99267.04;223427;1265;140222;-85
2023/11/11 16:55:41;;;;;;;60.20;34.40;;;;;;;8.58;100.00;99266.73;223870;1265;139106;-84
2023/11/11 17:01:43;;;;;;;66.00;42.00;;;;;;;8.52;100.00;99272.45;223420;1264;140136;-84
2023/11/11 17:07:44;;;;;;;56.20;37.50;;;;;;;8.41;100.00;99279.20;223882;1265;138637;-84
2023/11/11 17:13:19;;;;;;;;;;;;;;;;;;;;;
2023/11/11 17:19:19;;;;;;;;;;;;;;;;;;;;;
2023/11/11 17:25:22;;;;;;;51.20;28.40;;;;;;;8.28;100.00;99292.23;223931;1265;139121;-84
2023/11/11 17:31:22;;;;;;;39.20;22.10;;;;;;;8.20;100.00;99289.08;223506;1265;140782;-84
2023/11/11 17:37:21;;;;;;;;;;;;;;;;;;;;;
2023/11/11 17:43:24;;;;;;;37.00;21.90;;;;;;;8.03;100.00;99290.96;223922;1265;139295;-84
2023/11/11 17:49:24;;;;;;;42.70;24.80;;;;;;;7.95;100.00;99295.48;223301;1265;140329;-84
2023/11/11 17:55:25;;;;;;;42.40;25.10;;;;;;;7.86;100.00;99293.81;223930;1265;139378;-84
2023/11/11 18:01:26;;;;;;;39.40;26.50;;;;;;;7.73;100.00;99292.43;223458;1265;140097;-84
2023/11/11 18:07:29;;;;;;;35.80;22.50;;;;;;;7.64;100.00;99301.15;223897;1265;138909;-85
2023/11/11 18:13:28;;;;;;;;;;;;;;;;;;;;;
2023/11/11 18:25:31;;;;;;;100.70;39.90;;;;;;;7.41;100.00;99317.77;223925;1265;139384;-84
2023/11/11 18:31:30;;;;;;;;;;;;;;;;;;;;;
2023/11/11 18:37:33;;;;;;;101.10;41.10;;;;;;;7.26;100.00;99342.00;223944;1265;138935;-84
2023/11/11 18:43:33;;;;;;;66.00;31.40;;;;;;;7.16;100.00;99345.42;223976;1265;138858;-84
2023/11/11 18:49:26;;;;;;;;;;;;;;;;;;;;;
2023/11/11 18:55:26;;;;;;;;;;;;;;;;;;;;;
2023/11/11 19:01:29;;;;;;;101.10;49.50;;;;;;;7.01;100.00;99342.83;223455;1265;140132;-84
2023/11/11 19:07:30;;;;;;;100.30;49.80;;;;;;;7.00;100.00;99339.30;223848;1265;138903;-84
2023/11/11 19:13:32;;;;;;;170.40;60.70;;;;;;;7.05;100.00;99341.14;223870;1265;138893;-84
2023/11/11 19:19:26;;;;;;;140.70;53.60;;;;;;;7.04;100.00;99341.29;223349;1265;140666;-84
2023/11/11 19:25:29;;;;;;;185.00;71.70;;;;;;;7.02;100.00;99346.51;224020;1265;139170;-83
2023/11/11 19:31:23;;;;;;;160.30;64.80;;;;;;;7.03;100.00;99349.49;223486;1264;140574;-83
2023/11/11 19:37:24;;;;;;;99.60;42.30;;;;;;;7.05;100.00;99348.73;223955;1265;139305;-83
2023/11/11 19:49:27;;;;;;;103.20;44.30;;;;;;;7.01;100.00;99345.23;223511;1265;140541;-84
2023/11/11 19:55:28;;;;;;;104.60;45.50;;;;;;;7.00;100.00;99353.53;223912;1265;139303;-84
2023/11/11 20:01:28;;;;;;;78.70;40.70;;;;;;;6.99;100.00;99352.81;223396;1265;140523;-84
2023/11/11 20:07:19;;;;;;;67.30;35.70;;;;;;;6.96;100.00;99349.58;223973;1264;138860;-84
2023/11/11 20:12:44;;;;;;;54.50;31.10;;;;;;;6.93;100.00;99349.95;223675;1265;141274;-83
2023/11/11 20:18:46;;;;;;;62.20;33.20;;;;;;;6.92;100.00;99353.08;223457;1265;140488;-83
2023/11/11 20:24:48;;;;;;;59.30;32.30;;;;;;;6.93;100.00;99355.73;223901;1265;138864;-83
2023/11/11 20:30:49;;;;;;;64.50;35.00;;;;;;;6.92;100.00;99364.57;223499;1265;140837;-83
2023/11/11 20:36:50;;;;;;;56.40;30.60;;;;;;;6.86;100.00;99363.41;223988;1264;138797;-84
2023/11/11 20:42:51;;;;;;;57.00;30.70;;;;;;;6.81;100.00;99361.17;223369;1265;140480;-83
2023/11/11 20:48:53;;;;;;;61.60;33.60;;;;;;;6.78;100.00;99362.48;223349;1265;140195;-83
2023/11/11 20:54:46;;;;;;;;;;;;;;;;;;;;;
2023/11/11 21:00:50;;;;;;;62.10;35.00;;;;;;;6.76;100.00;99366.30;223394;1265;139995;-83
2023/11/11 21:06:42;;;;;;;56.00;33.10;;;;;;;6.66;100.00;99361.97;224000;1265;140160;-83
2023/11/11 21:12:43;;;;;;;60.30;34.30;;;;;;;6.63;100.00;99357.48;223438;1265;139604;-83
2023/11/11 21:18:45;;;;;;;64.20;34.70;;;;;;;6.65;100.00;99358.05;223352;1264;139693;-83
2023/11/11 21:24:45;;;;;;;60.40;33.60;;;;;;;6.66;100.00;99357.69;223980;1265;138675;-83
2023/11/11 21:31:11;;;;;;;70.50;38.20;;;;;;;6.67;100.00;99358.55;223444;1265;140255;-84
2023/11/11 21:36:33;;;;;;;66.90;36.90;;;;;;;6.64;100.00;99361.41;219751;1265;138624;-84
2023/11/11 21:42:26;;;;;;;;;;;;;;;;;;;;;
2023/11/11 21:48:28;;;;;;;69.00;38.30;;;;;;;6.63;100.00;99373.59;223399;1265;140310;-82
2023/11/11 21:54:29;;;;;;;69.50;38.40;;;;;;;6.56;100.00;99372.58;224091;1265;138861;-83
2023/11/11 22:00:30;;;;;;;81.80;40.30;;;;;;;6.56;100.00;99369.23;223330;1265;139797;-83
2023/11/11 22:06:32;;;;;;;78.10;38.20;;;;;;;6.54;100.00;99377.24;223888;1265;139539;-83
2023/11/11 22:12:31;;;;;;;;;;;;;;;;;;;;;
2023/11/11 22:18:33;;;;;;;71.10;37.90;;;;;;;6.50;100.00;99381.50;223395;1265;140758;-83
2023/11/11 22:24:34;;;;;;;64.60;37.50;;;;;;;6.49;100.00;99380.47;223915;1266;138862;-83
2023/11/11 22:30:35;;;;;;;68.00;40.30;;;;;;;6.50;100.00;99383.52;223349;1265;140120;-82
2023/11/11 22:36:35;;;;;;;;;;;;;;;;;;;;;
2023/11/11 22:42:37;;;;;;;68.50;37.60;;;;;;;6.47;100.00;99377.02;223173;1265;140110;-83
2023/11/11 22:48:38;;;;;;;62.90;34.90;;;;;;;6.47;100.00;99378.17;223574;1268;141335;-83
2023/11/11 22:54:38;;;;;;;49.10;27.00;;;;;;;6.45;100.00;99375.43;223829;1265;138822;-83
2023/11/11 23:00:46;;;;;;;46.90;27.40;;;;;;;6.43;100.00;99374.32;223475;1265;140422;-83
2023/11/11 23:06:26;;;;;;;52.20;27.30;;;;;;;6.41;100.00;99379.68;223792;1265;139291;-83
2023/11/11 23:12:04;;;;;;;;;;;;;;;;;;;;;
2023/11/11 23:18:09;;;;;;;51.40;27.20;;;;;;;6.33;100.00;99375.38;223580;1265;140509;-82
2023/11/11 23:23:57;;;;;;;46.00;26.50;;;;;;;6.33;100.00;99382.09;224009;1266;105154;-83
2023/11/11 23:29:51;;;;;;;;;;;;;;;;;;;;;
2023/11/11 23:35:29;;;;;;;44.60;25.80;;;;;;;6.29;100.00;99381.51;223972;1265;107008;-83
2023/11/11 23:41:30;;;;;;;46.30;24.00;;;;;;;6.27;100.00;99382.73;223599;1266;140288;-82
2023/11/11 23:47:31;;;;;;;36.30;21.30;;;;;;;6.26;100.00;99385.13;223943;1266;140246;-82
2023/11/11 23:53:24;;;;;;;36.90;20.90;;;;;;;6.26;100.00;99385.05;223868;1265;138370;-83
2023/11/11 23:59:16;;;;;;;;;;;;;;;;;;;;;
